Flag for France

Past Weather in 47°16'03.4"N, 2°12'02.9"W, France — Yesterday and Last 2 Weeks

Currently: 54 °F. Partly cloudy. (Weather station: Nantes Airport, France). See more current weather

Past Weather in 47°16'03.4"N, 2°12'02.9"W — Graph

°F

47°16'03.4"N, 2°12'02.9"W Temperature Yesterday

Maximum temperature yesterday: 64 °F (at 10:00 am)
Minimum temperature yesterday: 55 °F (at 11:00 pm)
Average temperature yesterday: 60 °F

High & Low Weather Summary for the Past Weeks

 TemperatureHumidityPressure
High75 °F (Jun 3, 4:30 pm)100% (Jun 5, 3:00 am)30.27 "Hg (Jun 5, 3:00 am)
Low45 °F (Jun 12, 6:00 am)38% (Jun 7, 4:00 pm)29.74 "Hg (Jun 14, 5:30 pm)
Average60 °F71%30.04 "Hg
* Reported May 31 5:00 am — Jun 15 5:00 am, 47°16'03.4"N, 2°12'02.9"W. Weather by CustomWeather, © 2024

Note: Actual official high and low records may vary slightly from our data, if they occured in-between our weather recording intervals... More about our weather records

47°16'03.4"N, 2°12'02.9"W Weather History for the Previous 24 Hours

Scroll right to see more
 ConditionsComfort  
Time TempWeatherWind HumidityBarometerVisibility
5:00 am
Sat, Jun 15
50 °FPassing clouds.6 mph88%29.80 "HgN/A
4:30 am52 °FClear.7 mph82%29.80 "Hg10 mi
4:00 am54 °FPassing clouds.7 mph82%29.80 "HgN/A
3:00 am54 °FPartly cloudy.7 mph82%29.80 "HgN/A
2:30 am54 °FPassing clouds.7 mph82%29.80 "HgN/A
2:00 am54 °FClear.8 mph77%29.77 "Hg10 mi
1:30 am54 °FClear.9 mph82%29.77 "Hg10 mi
1:00 am55 °FCool.12 mph82%29.77 "HgN/A
12:30 am55 °FOvercast.12 mph82%29.77 "HgN/A
12:00 am55 °FPartly cloudy.12 mph88%29.77 "HgN/A
11:30 pm
Fri, Jun 14
55 °FCool.9 mph88%29.77 "HgN/A
11:00 pm55 °FLight rain. Mostly cloudy.10 mph88%29.77 "HgN/A
10:30 pm59 °FPassing clouds.13 mph72%29.74 "HgN/A
10:00 pm59 °FBroken clouds.12 mph77%29.74 "HgN/A
9:30 pm59 °FBroken clouds.16 mph77%29.74 "HgN/A
9:00 pm59 °FBroken clouds.14 mph77%29.74 "HgN/A
8:30 pm61 °FPartly sunny.17 mph77%29.74 "HgN/A
8:00 pm61 °FPartly sunny.16 mph77%29.74 "HgN/A
7:00 pm59 °FBroken clouds.13 mph88%29.74 "HgN/A
6:30 pm63 °FPartly sunny.16 mph73%29.74 "HgN/A
6:00 pm64 °FPartly sunny.17 mph64%29.74 "HgN/A
5:30 pm64 °FCloudy.16 mph73%29.74 "HgN/A
5:00 pm61 °FPartly sunny.12 mph88%29.77 "HgN/A
4:30 pm61 °FLight rain. Broken clouds.13 mph88%29.77 "HgN/A
3:30 pm64 °FPartly sunny.16 mph73%29.77 "HgN/A
2:30 pm61 °FPartly sunny.13 mph94%29.77 "HgN/A
2:00 pm63 °FPartly sunny.12 mph83%29.77 "Hg6 mi
1:00 pm61 °FLight rain. Mostly cloudy.9 mph88%29.77 "HgN/A
12:30 pm63 °FPartly sunny.15 mph77%29.77 "HgN/A
12:00 pm63 °FBroken clouds.10 mph83%29.80 "HgN/A
11:30 am61 °FMore clouds than sun.9 mph94%29.80 "HgN/A
11:00 am61 °FRain. Broken clouds.13 mph88%29.80 "Hg4 mi
10:30 am63 °FPartly sunny.14 mph77%29.80 "HgN/A
10:00 am64 °FMostly cloudy.12 mph78%29.80 "HgN/A
9:30 am63 °FMore clouds than sun.12 mph83%29.80 "HgN/A
9:00 am61 °FOvercast.8 mph88%29.80 "HgN/A
8:30 am59 °FLow clouds.7 mph94%29.80 "HgN/A
8:00 am59 °FOvercast.6 mph94%29.80 "HgN/A
7:30 am57 °FMostly cloudy.7 mph94%29.80 "HgN/A
7:00 am57 °FMostly cloudy.7 mph94%29.80 "HgN/A
6:30 am57 °FOvercast.6 mph94%29.80 "HgN/A
Weather by CustomWeather, © 2024

See weather overview